createdAt,value
2022-08-04T00:00:40.333Z,100345.53
2022-08-04T00:04:10.364Z,100352.06
2022-08-04T00:08:02.333Z,100353.28
2022-08-04T00:11:24.354Z,100355.34
2022-08-04T00:14:48.310Z,100357.03
2022-08-04T00:18:18.376Z,100349.38
2022-08-04T00:21:39.343Z,100346.59
2022-08-04T00:25:00.377Z,100348.66
2022-08-04T00:28:21.350Z,100355.56
2022-08-04T00:31:54.940Z,100355.56
2022-08-04T00:35:18.334Z,100352.31
2022-08-04T00:38:39.354Z,100349.91
2022-08-04T00:42:29.371Z,100352.75
2022-08-04T00:46:17.195Z,100356.41
2022-08-04T00:49:53.365Z,100360.06
2022-08-04T00:53:37.373Z,100368.00
2022-08-04T00:57:30.145Z,100374.31
2022-08-04T01:00:59.392Z,100362.94
2022-08-04T01:04:25.355Z,100371.06
2022-08-04T01:08:10.372Z,100365.44
2022-08-04T01:12:03.357Z,100377.66
2022-08-04T01:15:56.393Z,100374.84
2022-08-04T01:19:34.375Z,100382.56
2022-08-04T01:23:30.374Z,100378.97
2022-08-04T01:27:15.372Z,100380.00
2022-08-04T01:30:40.381Z,100375.13
2022-08-04T01:34:04.848Z,100380.47
2022-08-04T01:37:32.385Z,100378.03
2022-08-04T01:40:55.369Z,100391.81
2022-08-04T01:44:18.400Z,100391.81
2022-08-04T01:47:43.411Z,100385.16
2022-08-04T01:51:06.348Z,100396.50
2022-08-04T01:54:31.398Z,100396.50
2022-08-04T01:57:57.371Z,100394.69
2022-08-04T02:01:20.450Z,100397.31
2022-08-04T02:04:41.400Z,100402.38
2022-08-04T02:08:21.438Z,100401.16
2022-08-04T02:11:36.402Z,100392.78
2022-08-04T02:15:09.392Z,100395.63
2022-08-04T02:18:42.422Z,100393.53
2022-08-04T02:22:16.379Z,100395.69
2022-08-04T02:25:39.383Z,100396.03
2022-08-04T02:29:01.372Z,100401.41
2022-08-04T02:32:34.421Z,100394.44
2022-08-04T02:35:59.501Z,100399.06
2022-08-04T02:39:25.614Z,100399.59
2022-08-04T02:42:47.361Z,100404.03
2022-08-04T02:46:18.015Z,100412.91
2022-08-04T02:49:40.627Z,100405.94
2022-08-04T02:53:09.922Z,100418.88
2022-08-04T02:56:33.371Z,100415.94
2022-08-04T03:00:27.412Z,100417.47
2022-08-04T03:04:06.384Z,100417.44
2022-08-04T03:07:52.376Z,100422.19
2022-08-04T03:11:39.421Z,100415.56
2022-08-04T03:15:27.435Z,100421.50
2022-08-04T03:19:23.380Z,100419.50
2022-08-04T03:23:18.625Z,100421.88
2022-08-04T03:26:48.379Z,100423.31
2022-08-04T03:30:19.417Z,100424.63
2022-08-04T03:34:08.381Z,100432.34
2022-08-04T03:37:46.385Z,100421.44
2022-08-04T03:41:54.961Z,100429.88
2022-08-04T03:45:38.453Z,100426.63
2022-08-04T03:49:19.376Z,100428.53
2022-08-04T03:53:04.449Z,100441.56
2022-08-04T03:57:03.391Z,100441.75
2022-08-04T04:00:44.439Z,100438.88
2022-08-04T04:04:11.411Z,100443.81
2022-08-04T04:08:13.802Z,100441.41
2022-08-04T04:12:10.426Z,100445.91
2022-08-04T04:16:08.393Z,100450.84
2022-08-04T04:20:06.523Z,100450.84
2022-08-04T04:23:46.474Z,100454.06
2022-08-04T04:27:20.579Z,100454.47
2022-08-04T04:30:55.485Z,100452.28
2022-08-04T04:34:33.495Z,100455.00
2022-08-04T04:38:09.407Z,100455.44
2022-08-04T04:41:48.452Z,100445.75
2022-08-04T04:45:33.419Z,100447.75
2022-08-04T04:49:25.507Z,100453.03
2022-08-04T04:52:55.426Z,100452.41
2022-08-04T04:56:32.440Z,100457.91
2022-08-04T05:00:02.471Z,100455.31
2022-08-04T05:03:55.437Z,100455.50
2022-08-04T05:07:37.402Z,100463.66
2022-08-04T05:11:17.430Z,100467.75
2022-08-04T05:14:43.393Z,100460.19
2022-08-04T05:18:07.425Z,100455.75
2022-08-04T05:21:55.469Z,100464.53
2022-08-04T05:25:31.478Z,100460.97
2022-08-04T05:28:57.451Z,100465.31
2022-08-04T05:32:28.440Z,100458.47
2022-08-04T05:36:23.442Z,100463.84
2022-08-04T05:39:43.486Z,100453.31
2022-08-04T05:43:10.439Z,100450.19
2022-08-04T05:46:32.432Z,100457.50
2022-08-04T05:50:01.501Z,100455.16
2022-08-04T05:53:24.415Z,100455.59
2022-08-04T05:56:47.439Z,100452.72
2022-08-04T06:00:38.818Z,100461.34
2022-08-04T06:07:28.429Z,100455.44
2022-08-04T06:10:53.524Z,100449.88
2022-08-04T06:14:18.483Z,100463.03
2022-08-04T06:19:56.436Z,100454.56
2022-08-04T06:21:55.459Z,100461.25
2022-08-04T06:25:18.458Z,100452.78
2022-08-04T06:28:41.433Z,100456.88
2022-08-04T06:32:29.559Z,100455.59
2022-08-04T06:36:10.556Z,100463.41
2022-08-04T06:39:32.483Z,100459.41
2022-08-04T06:42:54.436Z,100460.53
2022-08-04T06:46:17.446Z,100461.41
2022-08-04T06:49:32.455Z,100468.59
2022-08-04T06:53:13.486Z,100456.88
2022-08-04T06:56:35.443Z,100463.59
2022-08-04T07:03:37.455Z,100461.56
2022-08-04T07:06:52.470Z,100462.16
2022-08-04T07:10:18.038Z,100461.72
2022-08-04T07:13:45.646Z,100459.91
2022-08-04T07:17:34.969Z,100470.00
2022-08-04T07:21:35.476Z,100451.91
2022-08-04T07:24:56.479Z,100452.00
2022-08-04T07:28:18.446Z,100449.88
2022-08-04T07:31:40.450Z,100442.78
2022-08-04T07:35:05.505Z,100451.88
2022-08-04T07:38:27.751Z,100452.44
2022-08-04T07:41:49.481Z,100454.03
2022-08-04T07:45:11.495Z,100444.16
2022-08-04T07:48:32.534Z,100440.38
2022-08-04T07:51:57.517Z,100444.34
2022-08-04T07:55:19.528Z,100443.63
2022-08-04T07:58:40.515Z,100440.00
2022-08-04T08:02:02.497Z,100444.81
2022-08-04T08:05:26.492Z,100438.69
2022-08-04T08:08:51.533Z,100435.25
2022-08-04T08:12:35.299Z,100436.34
2022-08-04T08:15:53.522Z,100438.53
2022-08-04T08:19:14.492Z,100441.22
2022-08-04T08:22:35.521Z,100434.84
2022-08-04T08:25:56.561Z,100437.78
2022-08-04T08:29:17.503Z,100435.41
2022-08-04T08:32:38.504Z,100429.81
2022-08-04T08:36:35.630Z,100443.97
2022-08-04T08:40:40.237Z,100441.31
2022-08-04T08:44:36.306Z,100437.81
2022-08-04T08:48:33.473Z,100446.13
2022-08-04T08:52:09.534Z,100432.72
2022-08-04T08:55:54.530Z,100439.13
2022-08-04T08:59:30.475Z,100436.44
2022-08-04T09:03:13.511Z,100443.25
2022-08-04T09:07:02.499Z,100432.88
2022-08-04T09:10:40.486Z,100434.97
2022-08-04T09:14:09.486Z,100430.38
2022-08-04T09:17:55.497Z,100431.34
2022-08-04T09:21:23.541Z,100433.41
2022-08-04T09:25:22.512Z,100444.47
2022-08-04T09:28:54.317Z,100421.72
2022-08-04T09:32:30.554Z,100428.34
2022-08-04T09:36:00.577Z,100425.53
2022-08-04T09:39:53.510Z,100422.16
2022-08-04T09:43:21.517Z,100425.16
2022-08-04T09:46:50.515Z,100423.94
2022-08-04T09:50:15.591Z,100420.97
2022-08-04T09:53:45.524Z,100420.47
2022-08-04T09:57:42.518Z,100429.47
2022-08-04T10:01:22.457Z,100415.53
2022-08-04T10:04:47.511Z,100414.22
2022-08-04T10:08:28.524Z,100411.84
2022-08-04T10:12:08.568Z,100412.16
2022-08-04T10:15:47.551Z,100414.75
2022-08-04T10:19:23.706Z,100406.19
2022-08-04T10:23:09.203Z,100411.44
2022-08-04T10:26:41.507Z,100416.72
2022-08-04T10:30:02.558Z,100417.00
2022-08-04T10:33:33.543Z,100411.75
2022-08-04T10:37:19.699Z,100415.78
2022-08-04T10:41:34.723Z,100408.03
2022-08-04T10:44:59.527Z,100413.59
2022-08-04T10:48:36.342Z,100417.25
2022-08-04T10:52:06.542Z,100403.91
2022-08-04T10:56:06.530Z,100408.34
2022-08-04T10:59:13.536Z,100410.34
2022-08-04T11:02:45.599Z,100407.72
2022-08-04T11:06:12.536Z,100409.72
2022-08-04T11:09:35.577Z,100415.28
2022-08-04T11:12:59.578Z,100427.44
2022-08-04T11:16:28.538Z,100415.38
2022-08-04T11:24:00.616Z,100415.75
2022-08-04T11:27:27.570Z,100422.75
2022-08-04T11:30:59.602Z,100414.59
2022-08-04T11:34:35.572Z,100421.25
2022-08-04T11:38:10.544Z,100417.56
2022-08-04T11:41:35.584Z,100414.19
2022-08-04T11:45:13.574Z,100410.06
2022-08-04T11:48:42.573Z,100408.97
2022-08-04T11:52:04.542Z,100401.94
2022-08-04T11:55:29.586Z,100400.78
2022-08-04T11:58:51.546Z,100402.16
2022-08-04T12:02:31.670Z,100404.25
2022-08-04T12:06:08.581Z,100401.94
2022-08-04T12:09:30.700Z,100397.34
2022-08-04T12:13:12.584Z,100393.44
2022-08-04T12:17:00.596Z,100388.00
2022-08-04T12:20:31.415Z,100386.94
2022-08-04T12:24:00.765Z,100392.25
2022-08-04T12:27:35.582Z,100388.94
2022-08-04T12:31:11.681Z,100381.16
2022-08-04T12:35:00.619Z,100382.88
2022-08-04T12:38:26.591Z,100381.56
2022-08-04T12:41:52.554Z,100382.97
2022-08-04T12:45:20.616Z,100372.75
2022-08-04T12:48:35.595Z,100369.19
2022-08-04T12:52:08.495Z,100375.22
2022-08-04T12:55:31.550Z,100365.69
2022-08-04T12:59:18.292Z,100370.09
2022-08-04T13:02:36.617Z,100363.16
2022-08-04T13:05:59.572Z,100367.16
2022-08-04T13:09:28.554Z,100367.22
2022-08-04T13:12:51.564Z,100362.69
2022-08-04T13:16:21.580Z,100360.75
2022-08-04T13:19:44.583Z,100360.38
2022-08-04T13:23:05.563Z,100367.41
2022-08-04T13:26:42.532Z,100349.88
2022-08-04T13:30:13.726Z,100355.81
2022-08-04T13:33:54.594Z,100348.19
2022-08-04T13:37:20.859Z,100340.47
2022-08-04T13:40:43.593Z,100339.06
2022-08-04T13:44:18.444Z,100341.44
2022-08-04T13:47:46.601Z,100340.19
2022-08-04T13:51:11.721Z,100337.69
2022-08-04T13:54:32.617Z,100330.41
2022-08-04T13:58:00.171Z,100327.94
2022-08-04T14:02:39.604Z,100314.81
2022-08-04T14:06:21.599Z,100319.19
2022-08-04T14:10:04.067Z,100322.94
2022-08-04T14:13:25.583Z,100322.28
2022-08-04T14:16:46.594Z,100319.13
2022-08-04T14:20:13.569Z,100316.31
2022-08-04T14:23:34.612Z,100314.28
2022-08-04T14:27:12.590Z,100314.44
2022-08-04T14:30:50.581Z,100315.63
2022-08-04T14:34:18.696Z,100317.63
2022-08-04T14:37:48.389Z,100317.22
2022-08-04T14:41:13.563Z,100311.38
2022-08-04T14:44:34.601Z,100320.00
2022-08-04T14:48:00.606Z,100308.47
2022-08-04T14:51:36.674Z,100317.63
2022-08-04T14:54:57.616Z,100320.56
2022-08-04T14:58:36.510Z,100323.53
2022-08-04T15:02:00.879Z,100318.06
2022-08-04T15:05:55.389Z,100323.69
2022-08-04T15:09:04.609Z,100323.47
2022-08-04T15:12:25.595Z,100318.78
2022-08-04T15:16:02.304Z,100318.63
2022-08-04T15:19:28.573Z,100322.41
2022-08-04T15:22:50.600Z,100320.91
2022-08-04T15:26:16.604Z,100326.72
2022-08-04T15:29:59.346Z,100323.72
2022-08-04T15:33:22.153Z,100323.88
2022-08-04T15:37:09.632Z,100322.97
2022-08-04T15:40:35.600Z,100322.06
2022-08-04T15:44:21.611Z,100330.84
2022-08-04T15:47:42.596Z,100325.84
2022-08-04T15:51:16.919Z,100331.47
2022-08-04T15:54:37.645Z,100335.44
2022-08-04T15:58:23.586Z,100336.28
2022-08-04T16:02:10.926Z,100338.75
2022-08-04T16:05:28.595Z,100330.09
2022-08-04T16:09:01.630Z,100336.03
2022-08-04T16:12:44.509Z,100341.91
2022-08-04T16:16:08.604Z,100344.78
2022-08-04T16:19:35.058Z,100349.91
2022-08-04T16:23:03.665Z,100346.94
2022-08-04T16:26:30.599Z,100345.94
2022-08-04T16:29:56.622Z,100347.72
2022-08-04T16:33:21.740Z,100347.63
2022-08-04T16:37:09.629Z,100352.25
2022-08-04T16:40:41.651Z,100358.69
2022-08-04T16:44:02.591Z,100358.91
2022-08-04T16:47:23.752Z,100362.47
2022-08-04T16:50:45.646Z,100358.91
2022-08-04T16:54:06.627Z,100360.34
2022-08-04T16:57:28.621Z,100358.69
2022-08-04T17:00:52.647Z,100368.28
2022-08-04T17:04:13.596Z,100360.69
2022-08-04T17:07:34.665Z,100367.78
2022-08-04T17:10:59.668Z,100360.44
2022-08-04T17:14:20.664Z,100372.53
2022-08-04T17:18:06.464Z,100371.25
2022-08-04T17:21:28.676Z,100370.75
2022-08-04T17:24:51.889Z,100376.09
2022-08-04T17:28:27.538Z,100377.41
2022-08-04T17:31:53.315Z,100384.63
2022-08-04T17:35:14.676Z,100380.31
2022-08-04T17:38:35.669Z,100384.81
2022-08-04T17:41:56.628Z,100383.94
2022-08-04T17:49:26.654Z,100387.78
2022-08-04T17:52:49.660Z,100385.84
2022-08-04T17:56:11.649Z,100381.53
2022-08-04T17:59:56.106Z,100383.03
2022-08-04T18:03:23.163Z,100381.09
2022-08-04T18:06:43.670Z,100393.03
2022-08-04T18:10:32.946Z,100382.88
2022-08-04T18:13:53.637Z,100392.13
2022-08-04T18:17:17.871Z,100398.19
2022-08-04T18:20:55.638Z,100392.50
2022-08-04T18:24:20.822Z,100394.31
2022-08-04T18:28:10.779Z,100396.69
2022-08-04T18:31:35.668Z,100393.47
2022-08-04T18:34:56.639Z,100405.25
2022-08-04T18:38:26.889Z,100403.91
2022-08-04T18:42:00.859Z,100402.91
2022-08-04T18:45:23.650Z,100405.63
2022-08-04T18:48:54.664Z,100403.53
2022-08-04T18:52:17.667Z,100408.91
2022-08-04T18:55:56.827Z,100412.19
2022-08-04T18:59:25.699Z,100413.31
2022-08-04T19:02:46.673Z,100407.47
2022-08-04T19:06:08.701Z,100414.78
2022-08-04T19:09:51.122Z,100414.81
2022-08-04T19:13:22.326Z,100409.00
2022-08-04T19:16:47.695Z,100408.22
2022-08-04T19:20:15.813Z,100411.47
2022-08-04T19:24:28.648Z,100415.75
2022-08-04T19:27:26.711Z,100406.19
2022-08-04T19:31:07.694Z,100417.69
2022-08-04T19:34:32.968Z,100419.84
2022-08-04T19:37:56.829Z,100424.66
2022-08-04T19:41:22.737Z,100418.50
2022-08-04T19:44:47.724Z,100423.84
2022-08-04T19:48:18.679Z,100426.25
2022-08-04T19:51:44.032Z,100422.78
2022-08-04T19:55:10.598Z,100419.84
2022-08-04T19:58:31.698Z,100435.88
2022-08-04T20:01:53.699Z,100427.06
2022-08-04T20:05:15.756Z,100422.53
2022-08-04T20:08:48.409Z,100428.13
2022-08-04T20:12:09.779Z,100430.25
2022-08-04T20:15:30.762Z,100423.81
2022-08-04T20:18:56.812Z,100433.94
2022-08-04T20:26:00.670Z,100427.25
2022-08-04T20:29:39.961Z,100425.34
2022-08-04T20:33:01.750Z,100422.88
2022-08-04T20:36:24.768Z,100434.78
2022-08-04T20:39:54.968Z,100432.81
2022-08-04T20:43:15.790Z,100429.25
2022-08-04T20:46:36.718Z,100434.25
2022-08-04T20:49:57.726Z,100430.47
2022-08-04T20:53:21.708Z,100426.78
2022-08-04T20:57:02.677Z,100434.00
2022-08-04T21:00:29.815Z,100429.22
2022-08-04T21:04:08.696Z,100426.84
2022-08-04T21:07:36.434Z,100434.03
2022-08-04T21:11:03.708Z,100429.47
2022-08-04T21:14:29.085Z,100429.97
2022-08-04T21:17:59.414Z,100434.44
2022-08-04T21:21:24.780Z,100441.31
2022-08-04T21:24:56.741Z,100443.34
2022-08-04T21:28:20.443Z,100433.56
2022-08-04T21:31:50.983Z,100446.16
2022-08-04T21:35:15.186Z,100439.06
2022-08-04T21:38:36.738Z,100437.81
2022-08-04T21:42:28.032Z,100438.63
2022-08-04T21:45:38.731Z,100436.59
2022-08-04T21:48:59.785Z,100442.84
2022-08-04T21:52:20.727Z,100434.50
2022-08-04T21:56:05.696Z,100440.03
2022-08-04T21:59:28.506Z,100441.25
2022-08-04T22:02:53.358Z,100445.13
2022-08-04T22:06:17.438Z,100448.41
2022-08-04T22:09:41.351Z,100445.94
2022-08-04T22:12:55.816Z,100445.50
2022-08-04T22:16:12.734Z,100455.75
2022-08-04T22:19:50.135Z,100447.13
2022-08-04T22:23:19.114Z,100449.69
2022-08-04T22:26:40.723Z,100448.81
2022-08-04T22:30:01.718Z,100449.19
2022-08-04T22:33:16.759Z,100452.00
2022-08-04T22:36:39.728Z,100445.81
2022-08-04T22:40:01.847Z,100445.91
2022-08-04T22:43:33.640Z,100442.34
2022-08-04T22:46:54.835Z,100447.09
2022-08-04T22:50:26.959Z,100445.00
2022-08-04T22:53:49.722Z,100448.00
2022-08-04T22:57:10.866Z,100446.38
2022-08-04T23:00:34.887Z,100440.75
2022-08-04T23:03:56.750Z,100445.56
2022-08-04T23:07:17.799Z,100448.00
2022-08-04T23:10:44.755Z,100441.75
2022-08-04T23:14:05.743Z,100452.72
2022-08-04T23:17:27.713Z,100452.25
2022-08-04T23:20:49.760Z,100450.53
2022-08-04T23:24:13.748Z,100449.28
2022-08-04T23:27:40.330Z,100452.00
2022-08-04T23:31:04.797Z,100449.72
2022-08-04T23:34:25.796Z,100445.91
2022-08-04T23:37:56.100Z,100457.22
2022-08-04T23:41:55.359Z,100456.56
2022-08-04T23:45:07.767Z,100450.91
2022-08-04T23:48:28.764Z,100459.03
2022-08-04T23:51:49.887Z,100459.25
2022-08-04T23:55:07.816Z,100464.88
2022-08-04T23:58:36.778Z,100464.44
